Time;durP1;ratioP1;P1;durP2;ratioP2;P2;SDS_P1;SDS_P2;PMS_P1;PMS_P2;Temp;Humidity;BMP_temperature;BMP_pressure;BME280_temperature;BME280_humidity;BME280_pressure;Samples;Min_cycle;Max_cycle;Signal;HPM_P1;HPM_P2
2022/01/21 00:01:25;;;;;;;4.15;0.60;;;;;;;;;;5025556;28;20118;-59
2022/01/21 00:03:51;;;;;;;2.05;1.13;;;;;;;;;;5028975;28;20033;-60
2022/01/21 00:06:17;;;;;;;3.80;1.27;;;;;;;;;;5041648;28;20107;-60
2022/01/21 00:08:45;;;;;;;3.80;1.00;;;;;;;;;;5018448;28;20030;-59
2022/01/21 00:11:11;;;;;;;3.08;0.70;;;;;;;;;;5016773;28;20137;-60
2022/01/21 00:13:37;;;;;;;1.35;0.80;;;;;;;;;;5037920;28;20021;-60
2022/01/21 00:16:23;;;;;;;6.45;1.17;;;;;;;;;;5034164;28;20032;-60
2022/01/21 00:19:13;;;;;;;7.53;0.93;;;;;;;;;;5019749;28;20160;-59
2022/01/21 00:30:13;;;;;;;4.25;1.15;;;;;;;;;;5023183;28;20131;-60
2022/01/21 00:32:40;;;;;;;6.75;0.90;;;;;;;;;;5024700;28;20096;-58
2022/01/21 00:35:06;;;;;;;2.58;0.82;;;;;;;;;;5018824;28;20117;-59
2022/01/21 00:37:32;;;;;;;5.20;0.98;;;;;;;;;;5029599;28;20083;-58
2022/01/21 00:40:00;;;;;;;4.03;1.10;;;;;;;;;;5022801;28;20478;-60
2022/01/21 00:42:49;;;;;;;5.05;0.93;;;;;;;;;;5025365;28;20053;-60
2022/01/21 00:45:17;;;;;;;4.78;0.88;;;;;;;;;;5022598;28;20068;-60
2022/01/21 00:47:44;;;;;;;4.35;1.15;;;;;;;;;;5030241;28;20363;-60
2022/01/21 00:50:10;;;;;;;2.28;0.80;;;;;;;;;;5025796;28;20092;-60
2022/01/21 00:52:37;;;;;;;3.70;0.70;;;;;;;;;;5032691;28;20037;-60
2022/01/21 00:55:04;;;;;;;6.25;1.58;;;;;;;;;;5033951;28;20029;-60
2022/01/21 00:57:30;;;;;;;4.30;0.77;;;;;;;;;;5022464;28;20030;-60
2022/01/21 00:59:56;;;;;;;5.03;1.38;;;;;;;;;;5030023;28;20060;-60
2022/01/21 01:02:21;;;;;;;2.05;0.57;;;;;;;;;;5022131;28;20048;-60
2022/01/21 01:04:47;;;;;;;3.47;1.77;;;;;;;;;;5029358;28;20072;-60
2022/01/21 01:07:13;;;;;;;5.47;0.77;;;;;;;;;;5032442;28;20693;-59
2022/01/21 01:09:42;;;;;;;5.65;0.75;;;;;;;;;;5022407;28;20113;-60
2022/01/21 01:20:06;;;;;;;3.35;0.90;;;;;;;;;;5023250;28;20048;-60
2022/01/21 01:22:45;;;;;;;3.28;0.85;;;;;;;;;;5019089;28;20053;-59
2022/01/21 01:27:56;;;;;;;4.47;0.75;;;;;;;;;;5024786;28;20516;-59
2022/01/21 01:30:24;;;;;;;5.50;1.00;;;;;;;;;;5027836;28;20033;-60
2022/01/21 01:32:50;;;;;;;2.75;0.75;;;;;;;;;;5025755;28;20024;-60
2022/01/21 01:35:18;;;;;;;2.15;1.00;;;;;;;;;;5025051;28;20045;-60
2022/01/21 01:40:27;;;;;;;1.60;0.70;;;;;;;;;;5018734;28;20064;-59
2022/01/21 01:50:55;;;;;;;1.42;0.60;;;;;;;;;;5018764;28;20035;-59
2022/01/21 01:53:27;;;;;;;4.28;1.00;;;;;;;;;;5030745;28;20108;-60
2022/01/21 01:55:53;;;;;;;4.28;1.30;;;;;;;;;;5020081;28;20029;-60
2022/01/21 01:58:19;;;;;;;3.38;0.77;;;;;;;;;;5032272;28;20079;-60
2022/01/21 02:00:45;;;;;;;6.38;1.20;;;;;;;;;;5020877;28;20041;-58
2022/01/21 02:03:13;;;;;;;2.58;0.85;;;;;;;;;;5018962;28;20044;-58
2022/01/21 02:05:40;;;;;;;2.35;1.30;;;;;;;;;;5032114;28;20029;-57
2022/01/21 02:08:06;;;;;;;3.28;0.80;;;;;;;;;;5021624;28;20119;-57
2022/01/21 02:10:32;;;;;;;1.65;0.73;;;;;;;;;;5025372;28;20512;-58
2022/01/21 02:13:05;;;;;;;11.48;2.13;;;;;;;;;;5030460;28;20030;-58
2022/01/21 02:15:34;;;;;;;;;;;;;;;;;;5025228;28;20037;-55
2022/01/21 02:23:29;;;;;;;3.00;0.65;;;;;;;;;;5025000;28;20045;-57
2022/01/21 02:25:55;;;;;;;1.15;0.70;;;;;;;;;;5026523;28;20037;-58
2022/01/21 02:28:21;;;;;;;2.15;0.68;;;;;;;;;;5031856;28;20144;-58
2022/01/21 02:30:54;;;;;;;1.42;0.73;;;;;;;;;;5023254;28;20056;-58
2022/01/21 02:33:20;;;;;;;3.38;1.77;;;;;;;;;;5020138;28;20031;-57
2022/01/21 02:35:46;;;;;;;3.03;0.63;;;;;;;;;;5026295;28;20052;-57
2022/01/21 02:38:13;;;;;;;1.95;0.93;;;;;;;;;;5028039;28;20499;-58
2022/01/21 02:40:39;;;;;;;4.13;0.93;;;;;;;;;;5023438;28;20040;-57
2022/01/21 02:43:05;;;;;;;2.25;0.73;;;;;;;;;;5025579;28;20034;-58
2022/01/21 02:45:31;;;;;;;1.80;0.98;;;;;;;;;;5024561;28;20429;-58
2022/01/21 02:47:57;;;;;;;1.10;0.68;;;;;;;;;;5021947;28;20025;-58
2022/01/21 02:50:23;;;;;;;3.40;0.77;;;;;;;;;;5020368;28;20033;-57
2022/01/21 02:53:12;;;;;;;1.27;0.65;;;;;;;;;;5030307;28;20037;-58
2022/01/21 02:55:38;;;;;;;6.43;0.77;;;;;;;;;;5016199;28;20026;-58
2022/01/21 02:58:04;;;;;;;5.50;0.70;;;;;;;;;;5025059;28;20025;-58
2022/01/21 03:00:30;;;;;;;4.72;1.42;;;;;;;;;;5023922;28;20033;-58
2022/01/21 03:02:56;;;;;;;4.78;0.88;;;;;;;;;;5031177;28;20112;-57
2022/01/21 03:05:22;;;;;;;2.05;0.80;;;;;;;;;;5027544;28;20087;-58
2022/01/21 03:07:49;;;;;;;5.32;1.15;;;;;;;;;;5023278;28;20048;-57
2022/01/21 03:10:15;;;;;;;5.30;0.93;;;;;;;;;;5022724;28;20469;-57
2022/01/21 03:12:41;;;;;;;3.40;1.15;;;;;;;;;;5038522;28;20027;-58
2022/01/21 03:15:07;;;;;;;3.28;0.82;;;;;;;;;;5030513;28;20091;-58
2022/01/21 03:17:34;;;;;;;3.53;0.77;;;;;;;;;;5023850;28;20033;-58
2022/01/21 03:20:00;;;;;;;4.30;0.80;;;;;;;;;;5019428;28;20072;-58
2022/01/21 03:22:26;;;;;;;5.00;0.95;;;;;;;;;;5026196;28;20489;-57
2022/01/21 03:24:52;;;;;;;2.00;1.08;;;;;;;;;;5029842;28;20060;-58
2022/01/21 03:27:18;;;;;;;2.92;1.10;;;;;;;;;;5024296;28;20025;-58
2022/01/21 03:29:45;;;;;;;5.18;1.20;;;;;;;;;;5023734;28;20533;-58
2022/01/21 03:32:11;;;;;;;4.78;0.90;;;;;;;;;;5023957;28;20032;-58
2022/01/21 03:34:37;;;;;;;2.22;0.80;;;;;;;;;;5023112;28;20029;-58
2022/01/21 03:37:03;;;;;;;3.65;1.00;;;;;;;;;;5028612;28;20088;-58
2022/01/21 03:39:29;;;;;;;4.78;0.98;;;;;;;;;;5028296;28;20465;-58
2022/01/21 03:41:55;;;;;;;4.63;1.02;;;;;;;;;;5014106;28;20152;-56
2022/01/21 03:44:21;;;;;;;8.02;1.00;;;;;;;;;;5016566;28;20072;-58
2022/01/21 03:46:47;;;;;;;3.92;0.80;;;;;;;;;;5024944;28;20033;-58
2022/01/21 03:49:13;;;;;;;2.10;0.77;;;;;;;;;;5028861;28;20163;-58
2022/01/21 03:51:39;;;;;;;1.95;1.40;;;;;;;;;;5024975;28;20413;-58
2022/01/21 03:54:05;;;;;;;4.00;1.08;;;;;;;;;;5021880;28;20026;-58
2022/01/21 03:56:31;;;;;;;3.47;1.08;;;;;;;;;;5021631;28;20104;-58
2022/01/21 03:58:57;;;;;;;1.73;0.77;;;;;;;;;;5031438;28;20035;-56
2022/01/21 04:01:24;;;;;;;2.60;1.00;;;;;;;;;;5022801;28;20025;-58
2022/01/21 04:03:51;;;;;;;3.70;0.75;;;;;;;;;;5031285;28;20079;-58
2022/01/21 04:06:17;;;;;;;3.60;1.00;;;;;;;;;;5024275;28;20409;-57
2022/01/21 04:08:43;;;;;;;1.55;0.90;;;;;;;;;;5033542;28;20037;-58
2022/01/21 04:11:09;;;;;;;2.13;1.10;;;;;;;;;;5026256;28;20060;-58
2022/01/21 04:13:35;;;;;;;8.60;1.20;;;;;;;;;;5035543;28;20024;-57
2022/01/21 04:16:02;;;;;;;5.45;1.15;;;;;;;;;;5031135;28;20026;-58
2022/01/21 04:18:29;;;;;;;6.53;1.08;;;;;;;;;;5032884;28;20060;-58
2022/01/21 04:20:55;;;;;;;3.42;1.10;;;;;;;;;;5030681;28;20108;-58
2022/01/21 04:23:22;;;;;;;1.13;0.70;;;;;;;;;;5034289;28;20041;-58
2022/01/21 04:25:48;;;;;;;2.05;0.98;;;;;;;;;;5024768;28;20036;-58
2022/01/21 04:28:15;;;;;;;4.00;1.05;;;;;;;;;;5022110;28;20034;-58
2022/01/21 04:30:41;;;;;;;3.70;0.90;;;;;;;;;;5028109;28;20063;-58
2022/01/21 04:33:07;;;;;;;4.90;0.85;;;;;;;;;;5030581;28;20033;-57
2022/01/21 04:35:34;;;;;;;3.80;1.15;;;;;;;;;;5019271;28;20124;-58
2022/01/21 04:38:04;;;;;;;5.50;1.08;;;;;;;;;;5024952;28;20369;-57
2022/01/21 04:40:34;;;;;;;1.52;0.80;;;;;;;;;;5032656;28;20037;-58
2022/01/21 04:48:30;;;;;;;5.93;1.13;;;;;;;;;;5032892;28;20164;-57
2022/01/21 04:51:12;;;;;;;4.22;1.02;;;;;;;;;;5033268;28;20390;-58
2022/01/21 04:53:39;;;;;;;2.73;0.83;;;;;;;;;;5033846;28;20448;-58
2022/01/21 04:56:05;;;;;;;2.20;0.75;;;;;;;;;;5022278;28;20468;-58
2022/01/21 04:58:31;;;;;;;7.28;0.98;;;;;;;;;;5020081;28;20412;-56
2022/01/21 05:01:00;;;;;;;8.18;1.35;;;;;;;;;;5025972;28;20038;-56
2022/01/21 05:03:26;;;;;;;5.30;0.95;;;;;;;;;;5032476;28;20056;-56
2022/01/21 05:05:52;;;;;;;1.92;0.90;;;;;;;;;;5024736;28;20037;-58
2022/01/21 05:08:29;;;;;;;3.13;1.20;;;;;;;;;;5032741;28;20476;-58
2022/01/21 05:10:55;;;;;;;5.40;1.02;;;;;;;;;;5026875;28;20056;-57
2022/01/21 05:13:25;;;;;;;6.15;0.93;;;;;;;;;;5036894;28;20449;-58
2022/01/21 05:16:02;;;;;;;4.65;1.10;;;;;;;;;;5019946;28;20141;-57
2022/01/21 05:18:28;;;;;;;3.17;1.15;;;;;;;;;;5022917;28;20049;-57
2022/01/21 05:20:56;;;;;;;1.75;0.70;;;;;;;;;;5028703;28;20041;-57
2022/01/21 05:23:22;;;;;;;2.85;1.20;;;;;;;;;;5033344;28;20029;-58
2022/01/21 05:25:48;;;;;;;4.35;0.90;;;;;;;;;;5024587;28;20021;-57
2022/01/21 05:28:14;;;;;;;6.80;1.10;;;;;;;;;;5028967;28;20032;-57
2022/01/21 05:30:40;;;;;;;3.45;1.10;;;;;;;;;;5027939;28;20034;-57
2022/01/21 05:33:06;;;;;;;5.85;1.30;;;;;;;;;;5025121;28;20026;-58
2022/01/21 05:35:32;;;;;;;7.50;1.05;;;;;;;;;;5024344;28;20416;-53
2022/01/21 05:37:58;;;;;;;5.53;1.25;;;;;;;;;;5028030;28;20099;-58
2022/01/21 05:40:25;;;;;;;8.68;1.20;;;;;;;;;;5023824;28;20018;-58
2022/01/21 05:42:51;;;;;;;4.78;1.55;;;;;;;;;;5029986;28;20040;-58
2022/01/21 05:48:03;;;;;;;2.60;0.93;;;;;;;;;;5023200;28;20133;-58
2022/01/21 05:50:29;;;;;;;5.10;1.27;;;;;;;;;;5021618;28;20145;-58
2022/01/21 05:52:56;;;;;;;4.72;1.05;;;;;;;;;;5029967;28;20053;-58
2022/01/21 05:55:22;;;;;;;3.75;1.15;;;;;;;;;;5029975;28;20025;-58
2022/01/21 05:57:48;;;;;;;4.70;1.10;;;;;;;;;;5026709;28;20517;-58
2022/01/21 06:00:15;;;;;;;1.80;0.70;;;;;;;;;;5018798;28;20104;-56
2022/01/21 06:02:41;;;;;;;7.80;1.02;;;;;;;;;;5023759;28;20445;-56
2022/01/21 06:05:07;;;;;;;4.90;0.90;;;;;;;;;;5032966;28;20061;-58
2022/01/21 06:07:34;;;;;;;3.55;1.23;;;;;;;;;;5021032;28;20032;-58
2022/01/21 06:10:00;;;;;;;3.47;1.00;;;;;;;;;;5029410;28;20033;-57
2022/01/21 06:12:26;;;;;;;5.82;1.00;;;;;;;;;;5029436;28;20029;-54
2022/01/21 06:14:52;;;;;;;1.98;1.67;;;;;;;;;;5031057;28;20034;-57
2022/01/21 06:17:18;;;;;;;3.17;1.92;;;;;;;;;;5030945;28;20029;-56
2022/01/21 06:19:44;;;;;;;3.45;0.95;;;;;;;;;;5033424;28;20014;-58
2022/01/21 06:22:12;;;;;;;2.60;0.85;;;;;;;;;;5028558;28;20040;-57
2022/01/21 06:24:38;;;;;;;6.00;1.25;;;;;;;;;;5025035;28;20029;-57
2022/01/21 06:27:04;;;;;;;5.80;1.33;;;;;;;;;;5031478;28;20083;-59
2022/01/21 06:29:31;;;;;;;6.60;0.77;;;;;;;;;;5022033;28;20437;-60
2022/01/21 06:31:57;;;;;;;4.75;1.25;;;;;;;;;;5029132;28;20025;-60
2022/01/21 06:34:23;;;;;;;7.40;1.80;;;;;;;;;;5027802;28;20029;-59
2022/01/21 06:36:49;;;;;;;2.63;0.93;;;;;;;;;;5031937;28;20060;-59
2022/01/21 06:39:15;;;;;;;2.90;1.20;;;;;;;;;;5028503;28;20030;-60
2022/01/21 06:41:44;;;;;;;4.15;0.82;;;;;;;;;;5036709;28;20033;-60
2022/01/21 06:44:10;;;;;;;6.30;1.42;;;;;;;;;;5028226;28;20401;-60
2022/01/21 06:46:36;;;;;;;5.10;1.30;;;;;;;;;;5028800;28;20144;-60
2022/01/21 06:49:02;;;;;;;3.40;1.33;;;;;;;;;;5027879;28;20139;-60
2022/01/21 06:51:28;;;;;;;3.38;1.10;;;;;;;;;;5030779;28;20034;-58
2022/01/21 06:53:54;;;;;;;8.65;3.20;;;;;;;;;;5031674;28;20017;-60
2022/01/21 06:56:20;;;;;;;3.40;0.93;;;;;;;;;;5022143;28;20032;-60
2022/01/21 06:58:46;;;;;;;6.50;0.73;;;;;;;;;;5024757;28;20034;-60
2022/01/21 07:01:12;;;;;;;1.63;0.82;;;;;;;;;;5016549;28;20124;-60
2022/01/21 07:03:38;;;;;;;2.45;1.08;;;;;;;;;;5021326;28;20483;-59
2022/01/21 07:06:04;;;;;;;4.22;1.55;;;;;;;;;;5028780;28;20030;-60
2022/01/21 07:08:33;;;;;;;2.75;1.20;;;;;;;;;;5032112;28;20108;-60
2022/01/21 07:10:59;;;;;;;3.05;1.00;;;;;;;;;;5026622;28;20049;-60
2022/01/21 07:13:25;;;;;;;5.88;0.90;;;;;;;;;;5018781;28;20022;-60
2022/01/21 07:15:51;;;;;;;6.30;2.05;;;;;;;;;;5026916;28;20227;-60
2022/01/21 07:18:17;;;;;;;4.47;1.02;;;;;;;;;;5032026;28;20026;-60
2022/01/21 07:20:43;;;;;;;2.33;1.05;;;;;;;;;;5027059;28;20508;-60
2022/01/21 07:23:09;;;;;;;5.13;0.98;;;;;;;;;;5014832;28;20030;-59
2022/01/21 07:25:36;;;;;;;4.63;1.00;;;;;;;;;;5020454;28;20033;-60
2022/01/21 07:28:02;;;;;;;15.75;1.45;;;;;;;;;;5029764;28;20042;-60
2022/01/21 07:30:28;;;;;;;2.53;1.00;;;;;;;;;;5029858;28;20025;-60
2022/01/21 07:32:54;;;;;;;3.95;1.35;;;;;;;;;;5025893;28;20571;-60
2022/01/21 07:35:20;;;;;;;3.85;1.15;;;;;;;;;;5022617;28;20046;-60
2022/01/21 07:37:46;;;;;;;3.78;1.20;;;;;;;;;;5035539;28;20478;-60
2022/01/21 07:40:12;;;;;;;7.00;1.60;;;;;;;;;;5027869;28;20730;-59
2022/01/21 07:42:38;;;;;;;8.45;1.20;;;;;;;;;;5035148;28;20029;-60
2022/01/21 07:45:06;;;;;;;4.57;1.25;;;;;;;;;;5024679;28;20029;-60
2022/01/21 07:47:32;;;;;;;7.78;1.48;;;;;;;;;;5034323;28;20491;-60
2022/01/21 07:49:58;;;;;;;8.63;1.52;;;;;;;;;;5019205;28;20040;-60
2022/01/21 07:52:24;;;;;;;5.32;1.27;;;;;;;;;;5022374;28;20037;-60
2022/01/21 07:54:50;;;;;;;4.57;1.50;;;;;;;;;;5026462;28;20026;-60
2022/01/21 07:57:16;;;;;;;3.05;1.10;;;;;;;;;;5033127;28;20076;-60
2022/01/21 07:59:42;;;;;;;5.75;1.63;;;;;;;;;;5027708;28;20056;-60
2022/01/21 08:02:08;;;;;;;6.85;1.30;;;;;;;;;;5021827;28;20049;-60
2022/01/21 08:04:34;;;;;;;5.38;1.00;;;;;;;;;;5024855;28;20037;-60
2022/01/21 08:07:00;;;;;;;3.47;1.20;;;;;;;;;;5027598;28;20026;-60
2022/01/21 08:09:26;;;;;;;3.20;1.48;;;;;;;;;;5031591;28;20025;-60
2022/01/21 08:11:53;;;;;;;5.63;1.25;;;;;;;;;;5027543;28;20037;-60
2022/01/21 08:14:19;;;;;;;3.67;1.40;;;;;;;;;;5026404;28;20029;-60
2022/01/21 08:16:45;;;;;;;7.82;1.27;;;;;;;;;;5024363;28;20060;-60
2022/01/21 08:19:13;;;;;;;4.82;1.20;;;;;;;;;;5034943;28;20014;-60
2022/01/21 08:21:39;;;;;;;5.03;1.38;;;;;;;;;;5030060;28;20037;-60
2022/01/21 08:24:06;;;;;;;7.78;1.70;;;;;;;;;;5017834;28;20037;-59
2022/01/21 08:26:32;;;;;;;8.80;1.13;;;;;;;;;;5018553;28;20029;-60
2022/01/21 08:28:58;;;;;;;7.55;1.45;;;;;;;;;;5018897;28;20109;-60
2022/01/21 08:31:25;;;;;;;4.18;1.65;;;;;;;;;;5021639;28;20117;-60
2022/01/21 08:33:51;;;;;;;5.25;1.52;;;;;;;;;;5032309;28;20398;-60
2022/01/21 08:36:21;;;;;;;9.07;1.85;;;;;;;;;;5032715;28;20072;-60
2022/01/21 08:38:47;;;;;;;8.13;1.25;;;;;;;;;;5030672;28;20517;-58
2022/01/21 08:41:13;;;;;;;6.10;1.80;;;;;;;;;;5029658;28;20128;-60
2022/01/21 08:43:40;;;;;;;5.53;1.45;;;;;;;;;;5027047;28;20021;-59
2022/01/21 08:46:06;;;;;;;5.07;1.63;;;;;;;;;;5031688;28;20040;-60
2022/01/21 08:48:32;;;;;;;6.88;1.48;;;;;;;;;;5020212;28;20046;-60
2022/01/21 08:51:00;;;;;;;4.53;1.42;;;;;;;;;;5012351;28;20105;-60
2022/01/21 08:53:36;;;;;;;6.07;1.27;;;;;;;;;;5018344;28;20450;-60
2022/01/21 08:56:02;;;;;;;8.75;2.05;;;;;;;;;;5022009;28;20026;-60
2022/01/21 08:58:28;;;;;;;6.95;1.40;;;;;;;;;;5030506;28;20022;-61
2022/01/21 09:00:54;;;;;;;3.25;1.40;;;;;;;;;;5025086;28;20021;-60
2022/01/21 09:03:20;;;;;;;7.25;1.27;;;;;;;;;;5024026;28;20034;-60
2022/01/21 09:05:50;;;;;;;9.10;1.95;;;;;;;;;;5022396;28;20057;-60
2022/01/21 09:08:17;;;;;;;6.05;1.98;;;;;;;;;;5034303;28;20060;-60
2022/01/21 09:10:43;;;;;;;1.40;0.95;;;;;;;;;;5028490;28;20045;-60
2022/01/21 09:13:09;;;;;;;10.55;1.50;;;;;;;;;;5036036;28;20092;-60
2022/01/21 09:15:36;;;;;;;10.05;1.30;;;;;;;;;;5024322;28;20034;-60
2022/01/21 09:18:04;;;;;;;5.97;1.65;;;;;;;;;;5033811;28;20168;-60
2022/01/21 09:20:34;;;;;;;7.55;1.70;;;;;;;;;;5023657;28;20056;-60
2022/01/21 09:23:00;;;;;;;5.72;1.23;;;;;;;;;;5032587;28;20530;-60
2022/01/21 09:25:26;;;;;;;5.95;1.90;;;;;;;;;;5033073;28;20398;-60
2022/01/21 09:27:52;;;;;;;2.33;0.82;;;;;;;;;;5021742;28;20380;-60
2022/01/21 09:30:18;;;;;;;5.45;1.58;;;;;;;;;;5017042;28;20029;-59
2022/01/21 09:32:44;;;;;;;6.20;1.17;;;;;;;;;;5020002;28;20030;-59
2022/01/21 09:35:10;;;;;;;9.77;1.58;;;;;;;;;;5025004;28;20050;-60
2022/01/21 09:37:36;;;;;;;5.03;1.60;;;;;;;;;;5044794;28;20022;-60
2022/01/21 09:40:03;;;;;;;12.13;1.98;;;;;;;;;;5027434;28;20056;-61
2022/01/21 09:42:32;;;;;;;4.68;1.27;;;;;;;;;;5032837;28;20026;-61
2022/01/21 09:44:59;;;;;;;5.38;1.00;;;;;;;;;;5032354;28;20116;-61
2022/01/21 09:47:25;;;;;;;8.55;1.52;;;;;;;;;;5033543;28;20436;-61
2022/01/21 09:49:52;;;;;;;11.68;1.45;;;;;;;;;;5024315;28;20080;-61
2022/01/21 09:52:19;;;;;;;4.32;1.20;;;;;;;;;;5019102;28;20037;-61
2022/01/21 09:54:47;;;;;;;5.13;1.30;;;;;;;;;;5024891;28;20018;-61
2022/01/21 09:57:16;;;;;;;4.75;1.10;;;;;;;;;;5033084;28;20048;-61
2022/01/21 09:59:43;;;;;;;8.85;1.58;;;;;;;;;;5018173;28;20017;-61
2022/01/21 10:02:09;;;;;;;3.90;1.13;;;;;;;;;;5027142;28;20030;-61
2022/01/21 10:04:37;;;;;;;7.25;1.17;;;;;;;;;;5024536;28;20021;-61
2022/01/21 10:07:03;;;;;;;3.28;1.00;;;;;;;;;;5022824;28;20029;-61
2022/01/21 10:09:30;;;;;;;5.50;1.13;;;;;;;;;;5029193;28;20072;-61
2022/01/21 10:11:56;;;;;;;8.75;1.65;;;;;;;;;;5035651;28;20028;-61
2022/01/21 10:14:27;;;;;;;5.88;1.20;;;;;;;;;;5030583;28;20481;-61
2022/01/21 10:16:53;;;;;;;11.32;1.27;;;;;;;;;;5025628;28;20023;-61
2022/01/21 10:19:30;;;;;;;6.25;2.08;;;;;;;;;;5030657;28;20022;-61
2022/01/21 10:22:05;;;;;;;6.90;1.77;;;;;;;;;;5042232;28;20025;-61
2022/01/21 10:24:31;;;;;;;5.45;1.45;;;;;;;;;;5028113;28;20088;-61
2022/01/21 10:26:58;;;;;;;7.10;1.30;;;;;;;;;;5031812;28;20120;-61
2022/01/21 10:29:25;;;;;;;4.80;0.98;;;;;;;;;;5023629;28;20045;-62
2022/01/21 10:31:55;;;;;;;2.42;0.68;;;;;;;;;;5028726;28;20068;-62
2022/01/21 10:34:34;;;;;;;4.28;0.85;;;;;;;;;;5023314;28;20520;-62
2022/01/21 10:37:07;;;;;;;3.13;0.88;;;;;;;;;;5025210;28;20045;-61
2022/01/21 10:39:53;;;;;;;2.13;1.00;;;;;;;;;;5027446;28;20026;-61
2022/01/21 10:42:23;;;;;;;5.85;0.80;;;;;;;;;;5032272;28;20037;-61
2022/01/21 10:44:50;;;;;;;3.97;0.80;;;;;;;;;;5028268;28;20116;-61
2022/01/21 10:47:16;;;;;;;3.53;0.95;;;;;;;;;;5029992;28;20041;-61
2022/01/21 10:49:45;;;;;;;6.00;1.02;;;;;;;;;;5025772;28;20034;-60
2022/01/21 10:52:15;;;;;;;3.53;1.00;;;;;;;;;;5025388;28;20041;-59
2022/01/21 10:54:44;;;;;;;4.13;1.08;;;;;;;;;;5020661;28;20457;-60
2022/01/21 10:57:12;;;;;;;3.05;0.98;;;;;;;;;;5031156;28;20046;-60
2022/01/21 10:59:48;;;;;;;6.85;0.90;;;;;;;;;;5021305;28;20037;-61
2022/01/21 11:02:14;;;;;;;1.35;0.55;;;;;;;;;;5018963;28;20037;-60
2022/01/21 11:04:44;;;;;;;2.72;0.88;;;;;;;;;;5023201;28;20022;-60
2022/01/21 11:07:13;;;;;;;8.77;1.73;;;;;;;;;;5019761;28;20037;-60
2022/01/21 11:09:39;;;;;;;3.38;1.20;;;;;;;;;;5023173;28;20034;-60
2022/01/21 11:12:10;;;;;;;6.38;0.90;;;;;;;;;;5026063;28;20048;-61
2022/01/21 11:14:37;;;;;;;3.10;0.70;;;;;;;;;;5021911;28;20033;-61
2022/01/21 11:17:14;;;;;;;2.42;0.88;;;;;;;;;;5027978;28;20024;-61
2022/01/21 11:19:40;;;;;;;4.78;1.15;;;;;;;;;;5029029;28;20032;-61
2022/01/21 11:22:07;;;;;;;2.85;0.80;;;;;;;;;;5029120;28;20026;-61
2022/01/21 11:24:33;;;;;;;1.30;0.55;;;;;;;;;;5018838;28;20037;-61
2022/01/21 11:27:08;;;;;;;3.90;0.80;;;;;;;;;;5021120;28;20548;-61
2022/01/21 11:29:34;;;;;;;3.75;0.80;;;;;;;;;;5030123;28;20065;-61
2022/01/21 11:32:00;;;;;;;3.20;0.70;;;;;;;;;;5020198;28;20029;-61
2022/01/21 11:34:26;;;;;;;4.53;1.17;;;;;;;;;;5029244;28;20033;-61
2022/01/21 11:36:53;;;;;;;2.78;0.60;;;;;;;;;;5036712;28;20440;-61
2022/01/21 11:39:21;;;;;;;2.60;0.70;;;;;;;;;;5027022;28;20033;-61
2022/01/21 11:41:49;;;;;;;5.43;0.73;;;;;;;;;;5031002;28;20022;-61
2022/01/21 11:44:17;;;;;;;6.60;0.55;;;;;;;;;;5031664;28;20470;-61
2022/01/21 11:46:58;;;;;;;2.22;0.63;;;;;;;;;;5019597;28;20171;-61
2022/01/21 11:49:25;;;;;;;2.58;0.45;;;;;;;;;;5030242;28;20017;-60
2022/01/21 11:52:07;;;;;;;5.65;1.13;;;;;;;;;;5016387;28;20621;-61
2022/01/21 11:54:36;;;;;;;4.15;0.70;;;;;;;;;;5019100;28;20419;-59
2022/01/21 11:57:04;;;;;;;4.53;0.63;;;;;;;;;;5029880;28;20107;-61
2022/01/21 11:59:35;;;;;;;6.68;0.60;;;;;;;;;;5031674;28;20650;-61
2022/01/21 12:02:18;;;;;;;6.07;1.00;;;;;;;;;;5020261;28;20029;-61
2022/01/21 12:04:51;;;;;;;2.13;0.57;;;;;;;;;;5024190;28;20030;-61
2022/01/21 12:07:44;;;;;;;2.72;0.52;;;;;;;;;;5022281;28;20018;-62
2022/01/21 12:10:11;;;;;;;3.35;0.60;;;;;;;;;;5030488;28;20040;-62
2022/01/21 12:15:52;;;;;;;4.43;0.75;;;;;;;;;;5017876;28;20041;-61
2022/01/21 12:18:54;;;;;;;3.78;0.98;;;;;;;;;;5029180;28;20018;-62
2022/01/21 12:21:25;;;;;;;2.40;0.60;;;;;;;;;;5029159;28;20228;-62
2022/01/21 12:23:52;;;;;;;3.40;0.70;;;;;;;;;;5028738;28;20033;-62
2022/01/21 12:26:18;;;;;;;4.97;0.50;;;;;;;;;;5026994;28;20045;-62
2022/01/21 12:29:07;;;;;;;3.55;0.70;;;;;;;;;;5030669;28;20034;-62
2022/01/21 12:31:44;;;;;;;1.77;0.50;;;;;;;;;;5021724;28;20035;-62
2022/01/21 12:34:15;;;;;;;5.30;0.68;;;;;;;;;;5032304;28;20033;-62
2022/01/21 12:36:52;;;;;;;2.50;0.88;;;;;;;;;;5033136;28;20474;-62
2022/01/21 12:39:37;;;;;;;2.08;0.80;;;;;;;;;;5034709;28;20545;-62
2022/01/21 12:42:23;;;;;;;2.67;0.57;;;;;;;;;;5026952;28;20025;-62
2022/01/21 12:44:50;;;;;;;4.57;1.30;;;;;;;;;;5034741;28;20384;-62
2022/01/21 12:47:29;;;;;;;0.80;0.43;;;;;;;;;;5024371;28;20025;-62
2022/01/21 12:50:04;;;;;;;3.97;0.77;;;;;;;;;;5031655;28;20033;-62
2022/01/21 12:52:45;;;;;;;4.75;0.82;;;;;;;;;;5024414;28;20104;-62
2022/01/21 12:58:05;;;;;;;4.45;0.70;;;;;;;;;;5027314;28;20083;-62
2022/01/21 13:00:31;;;;;;;3.05;0.68;;;;;;;;;;5034282;28;20112;-62
2022/01/21 13:03:01;;;;;;;2.20;0.55;;;;;;;;;;5035473;28;20117;-62
2022/01/21 13:05:32;;;;;;;3.05;0.77;;;;;;;;;;5032210;28;20029;-61
2022/01/21 13:08:05;;;;;;;1.85;0.70;;;;;;;;;;5031490;28;20104;-62
2022/01/21 13:10:31;;;;;;;1.70;0.70;;;;;;;;;;5033597;28;20033;-61
2022/01/21 13:15:39;;;;;;;1.75;0.60;;;;;;;;;;5020552;28;20037;-61
2022/01/21 13:18:06;;;;;;;5.10;1.00;;;;;;;;;;5033201;28;20080;-61
2022/01/21 13:20:33;;;;;;;6.22;0.65;;;;;;;;;;5033180;28;20052;-61
2022/01/21 13:22:59;;;;;;;6.30;0.90;;;;;;;;;;5033007;28;20384;-60
2022/01/21 13:25:26;;;;;;;1.60;0.73;;;;;;;;;;5033028;28;20225;-61
2022/01/21 13:27:57;;;;;;;2.63;0.60;;;;;;;;;;5033537;28;20674;-61
2022/01/21 13:30:24;;;;;;;6.10;1.15;;;;;;;;;;5033678;28;20033;-61
2022/01/21 13:33:02;;;;;;;6.65;0.85;;;;;;;;;;5031006;28;20564;-61
2022/01/21 13:35:29;;;;;;;4.90;1.27;;;;;;;;;;5033084;28;20543;-61
2022/01/21 13:38:01;;;;;;;2.47;1.20;;;;;;;;;;5035292;28;20030;-61
2022/01/21 13:40:30;;;;;;;4.43;0.90;;;;;;;;;;5032903;28;20422;-60
2022/01/21 13:43:10;;;;;;;2.42;0.65;;;;;;;;;;5029633;28;20060;-60
2022/01/21 13:45:36;;;;;;;3.47;0.80;;;;;;;;;;5027067;28;20041;-60
2022/01/21 13:48:05;;;;;;;5.18;0.75;;;;;;;;;;5030831;28;20121;-60
2022/01/21 13:50:32;;;;;;;2.28;0.82;;;;;;;;;;5033120;28;20036;-60
2022/01/21 13:53:08;;;;;;;1.02;0.52;;;;;;;;;;5032870;28;20660;-60
2022/01/21 13:55:40;;;;;;;4.18;0.70;;;;;;;;;;5032741;28;20037;-60
2022/01/21 13:58:08;;;;;;;9.05;0.77;;;;;;;;;;5033069;28;20029;-60
2022/01/21 14:00:36;;;;;;;2.38;0.90;;;;;;;;;;5029944;28;20380;-60
2022/01/21 14:03:08;;;;;;;2.17;0.82;;;;;;;;;;5023331;28;20124;-60
2022/01/21 14:05:52;;;;;;;1.35;0.93;;;;;;;;;;5025526;28;20034;-60
2022/01/21 14:08:25;;;;;;;1.80;0.50;;;;;;;;;;5027608;28;20037;-60
2022/01/21 14:10:58;;;;;;;3.97;0.68;;;;;;;;;;5019202;28;20025;-60
2022/01/21 14:13:26;;;;;;;1.85;0.70;;;;;;;;;;5032592;28;20385;-61
2022/01/21 14:15:54;;;;;;;2.78;0.45;;;;;;;;;;5032537;28;20060;-60
2022/01/21 14:18:20;;;;;;;2.38;0.80;;;;;;;;;;5029882;28;20037;-61
2022/01/21 14:20:47;;;;;;;1.65;0.60;;;;;;;;;;5028657;28;20109;-61
2022/01/21 14:23:14;;;;;;;0.93;0.40;;;;;;;;;;5026651;28;20646;-60
2022/01/21 14:25:50;;;;;;;2.17;0.80;;;;;;;;;;5027704;28;20032;-60
2022/01/21 14:28:16;;;;;;;1.20;0.40;;;;;;;;;;5025032;28;20030;-60
2022/01/21 14:30:42;;;;;;;1.80;0.90;;;;;;;;;;5022235;28;20168;-60
2022/01/21 14:33:09;;;;;;;1.33;0.73;;;;;;;;;;5022085;28;20052;-61
2022/01/21 14:35:40;;;;;;;1.30;0.60;;;;;;;;;;5032388;28;20120;-60
2022/01/21 14:38:08;;;;;;;1.17;0.70;;;;;;;;;;5032846;28;20377;-60
2022/01/21 14:40:36;;;;;;;2.65;0.80;;;;;;;;;;5034456;28;20029;-60
2022/01/21 14:43:12;;;;;;;4.22;1.00;;;;;;;;;;5031313;28;20377;-61
2022/01/21 14:45:42;;;;;;;2.40;0.60;;;;;;;;;;5027836;28;20025;-60
2022/01/21 14:48:12;;;;;;;1.02;0.60;;;;;;;;;;5017814;28;20041;-60
2022/01/21 14:50:38;;;;;;;2.03;0.80;;;;;;;;;;5019629;28;20034;-60
2022/01/21 14:53:07;;;;;;;3.25;0.40;;;;;;;;;;5030793;28;20030;-59
2022/01/21 14:55:34;;;;;;;2.53;0.47;;;;;;;;;;5030055;28;20017;-60
2022/01/21 14:58:02;;;;;;;2.15;0.77;;;;;;;;;;5031320;28;20025;-60
2022/01/21 15:00:44;;;;;;;1.35;0.50;;;;;;;;;;5031332;28;20040;-60
2022/01/21 15:03:10;;;;;;;1.13;0.43;;;;;;;;;;5019883;28;20034;-60
2022/01/21 15:05:38;;;;;;;1.95;0.60;;;;;;;;;;5029025;28;20385;-60
2022/01/21 15:08:04;;;;;;;2.35;0.68;;;;;;;;;;5032248;28;20424;-60
2022/01/21 15:10:41;;;;;;;6.38;0.90;;;;;;;;;;5031416;28;20033;-60
2022/01/21 15:16:10;;;;;;;3.08;0.82;;;;;;;;;;5029840;28;20049;-59
2022/01/21 15:18:36;;;;;;;1.45;0.73;;;;;;;;;;5031563;28;20125;-61
2022/01/21 15:21:02;;;;;;;0.93;0.57;;;;;;;;;;5030984;28;20033;-60
2022/01/21 15:23:28;;;;;;;1.30;0.65;;;;;;;;;;5031835;28;20030;-60
2022/01/21 15:25:54;;;;;;;1.10;0.60;;;;;;;;;;5038480;28;20029;-60
2022/01/21 15:28:20;;;;;;;0.50;0.40;;;;;;;;;;5031928;28;20038;-60
2022/01/21 15:30:47;;;;;;;1.55;0.70;;;;;;;;;;5030872;28;20037;-60
2022/01/21 15:33:13;;;;;;;7.28;0.70;;;;;;;;;;5030623;28;20025;-60
2022/01/21 15:35:39;;;;;;;1.98;0.75;;;;;;;;;;5033262;28;20045;-60
2022/01/21 15:38:05;;;;;;;3.25;0.80;;;;;;;;;;5031874;28;20021;-60
2022/01/21 15:40:33;;;;;;;2.00;0.60;;;;;;;;;;5030887;28;20064;-60
2022/01/21 15:43:00;;;;;;;1.38;0.70;;;;;;;;;;5031684;28;20026;-60
2022/01/21 15:45:26;;;;;;;1.83;0.85;;;;;;;;;;5031043;28;20033;-60